createdAt,value
2022-12-31T00:01:18.140Z,3.70
2022-12-31T00:03:46.270Z,1.67
2022-12-31T00:06:31.904Z,2.35
2022-12-31T00:09:01.027Z,1.45
2022-12-31T00:11:29.797Z,0.90
2022-12-31T00:13:57.743Z,1.17
2022-12-31T00:16:27.637Z,1.08
2022-12-31T00:18:58.347Z,1.45
2022-12-31T00:21:26.912Z,0.98
2022-12-31T00:23:54.021Z,0.95
2022-12-31T00:26:23.691Z,1.17
2022-12-31T00:28:52.452Z,3.72
2022-12-31T00:31:24.682Z,1.85
2022-12-31T00:33:52.237Z,1.10
2022-12-31T00:36:25.197Z,0.93
2022-12-31T00:38:53.626Z,1.27
2022-12-31T00:41:21.448Z,2.15
2022-12-31T00:43:48.956Z,1.05
2022-12-31T00:46:17.178Z,1.50
2022-12-31T00:48:44.616Z,1.10
2022-12-31T00:51:14.425Z,0.55
2022-12-31T00:53:41.822Z,1.02
2022-12-31T00:56:18.731Z,3.35
2022-12-31T00:58:46.808Z,0.73
2022-12-31T01:01:40.286Z,1.40
2022-12-31T01:04:13.941Z,2.17
2022-12-31T01:06:43.066Z,2.08
2022-12-31T01:09:11.672Z,1.00
2022-12-31T01:11:38.692Z,2.38
2022-12-31T01:14:07.579Z,1.17
2022-12-31T01:16:41.307Z,1.15
2022-12-31T01:19:11.419Z,1.00
2022-12-31T01:21:40.406Z,1.50
2022-12-31T01:24:08.800Z,1.98
2022-12-31T01:26:36.801Z,1.35
2022-12-31T01:29:05.354Z,0.90
2022-12-31T01:31:33.802Z,0.93
2022-12-31T01:34:00.965Z,0.88
2022-12-31T01:36:30.743Z,0.90
2022-12-31T01:39:00.608Z,1.10
2022-12-31T01:41:31.172Z,1.35
2022-12-31T01:44:22.753Z,0.82
2022-12-31T01:46:54.445Z,0.77
2022-12-31T01:49:30.999Z,1.10
2022-12-31T01:52:06.478Z,0.70
2022-12-31T01:54:40.778Z,1.30
2022-12-31T01:57:09.574Z,2.65
2022-12-31T01:59:36.903Z,2.58
2022-12-31T02:02:05.623Z,0.88
2022-12-31T02:04:33.046Z,1.05
2022-12-31T02:07:03.109Z,2.22
2022-12-31T02:09:31.297Z,0.60
2022-12-31T02:11:58.392Z,1.67
2022-12-31T02:14:35.116Z,1.33
2022-12-31T02:17:39.950Z,0.77
2022-12-31T02:20:38.176Z,1.00
2022-12-31T02:23:41.475Z,0.90
2022-12-31T02:26:41.828Z,0.90
2022-12-31T02:29:30.872Z,2.00
2022-12-31T02:32:03.989Z,0.82
2022-12-31T02:34:37.581Z,1.15
2022-12-31T02:37:10.296Z,4.88
2022-12-31T02:39:38.184Z,1.27
2022-12-31T02:42:05.366Z,0.98
2022-12-31T02:44:35.034Z,2.17
2022-12-31T02:47:08.107Z,1.50
2022-12-31T02:49:47.233Z,1.50
2022-12-31T02:52:43.967Z,1.02
2022-12-31T02:55:24.383Z,0.73
2022-12-31T02:58:28.431Z,0.65
2022-12-31T03:00:57.983Z,0.80
2022-12-31T03:03:26.872Z,2.97
2022-12-31T03:05:55.469Z,3.90
2022-12-31T03:08:23.969Z,1.35
2022-12-31T03:11:01.998Z,1.75
2022-12-31T03:13:29.134Z,2.85
2022-12-31T03:15:56.278Z,2.25
2022-12-31T03:18:23.478Z,3.00
2022-12-31T03:20:51.289Z,1.63
2022-12-31T03:23:31.321Z,2.78
2022-12-31T03:25:59.945Z,1.60
2022-12-31T03:28:30.070Z,1.75
2022-12-31T03:31:00.183Z,1.27
2022-12-31T03:33:34.904Z,2.15
2022-12-31T03:36:10.384Z,2.30
2022-12-31T03:38:38.031Z,1.63
2022-12-31T03:41:05.339Z,2.97
2022-12-31T03:43:32.433Z,0.98
2022-12-31T03:45:59.717Z,2.28
2022-12-31T03:48:27.137Z,2.00
2022-12-31T03:50:54.463Z,2.70
2022-12-31T03:53:21.493Z,2.08
2022-12-31T03:55:53.268Z,3.80
2022-12-31T04:00:47.350Z,3.38
2022-12-31T04:03:17.632Z,1.27
2022-12-31T04:05:44.765Z,1.83
2022-12-31T04:08:11.798Z,2.50
2022-12-31T04:10:38.798Z,1.40
2022-12-31T04:13:05.827Z,3.85
2022-12-31T04:15:32.882Z,2.70
2022-12-31T04:17:59.998Z,6.38
2022-12-31T04:20:27.144Z,1.67
2022-12-31T04:22:54.207Z,1.48
2022-12-31T04:25:21.248Z,1.83
2022-12-31T04:27:48.260Z,1.60
2022-12-31T04:30:15.505Z,2.63
2022-12-31T04:32:42.565Z,2.17
2022-12-31T04:35:10.813Z,1.48
2022-12-31T04:37:37.896Z,2.05
2022-12-31T04:40:07.018Z,1.35
2022-12-31T04:42:35.035Z,3.05
2022-12-31T04:45:02.259Z,1.63
2022-12-31T04:47:29.323Z,2.53
2022-12-31T04:49:56.373Z,1.92
2022-12-31T04:52:23.449Z,3.83
2022-12-31T04:54:50.484Z,1.77
2022-12-31T04:57:17.620Z,3.08
2022-12-31T04:59:44.696Z,1.52
2022-12-31T05:02:11.868Z,1.27
2022-12-31T05:04:39.219Z,3.20
2022-12-31T05:07:06.331Z,5.45
2022-12-31T05:09:33.412Z,2.28
2022-12-31T05:12:00.539Z,2.13
2022-12-31T05:14:27.621Z,4.65
2022-12-31T05:16:54.743Z,2.33
2022-12-31T05:19:21.783Z,2.20
2022-12-31T05:21:48.886Z,5.18
2022-12-31T05:24:16.062Z,3.50
2022-12-31T05:26:43.094Z,4.38
2022-12-31T05:29:10.271Z,5.43
2022-12-31T05:31:37.342Z,3.13
2022-12-31T05:34:04.377Z,1.98
2022-12-31T05:36:31.581Z,2.53
2022-12-31T05:38:58.645Z,5.40
2022-12-31T05:41:25.673Z,4.75
2022-12-31T05:43:52.681Z,2.38
2022-12-31T05:46:19.832Z,2.92
2022-12-31T05:48:47.006Z,3.33
2022-12-31T05:51:14.000Z,2.45
2022-12-31T05:53:41.126Z,2.15
2022-12-31T05:56:08.154Z,1.75
2022-12-31T05:58:35.134Z,1.92
2022-12-31T06:01:02.220Z,1.83
2022-12-31T06:03:29.309Z,1.42
2022-12-31T06:05:56.439Z,1.65
2022-12-31T06:08:23.437Z,1.13
2022-12-31T06:10:50.403Z,3.72
2022-12-31T06:13:17.440Z,1.85
2022-12-31T06:15:44.496Z,1.25
2022-12-31T06:18:12.251Z,1.38
2022-12-31T06:20:39.262Z,1.58
2022-12-31T06:23:06.412Z,3.63
2022-12-31T06:25:35.700Z,2.90
2022-12-31T06:28:04.385Z,4.00
2022-12-31T06:30:31.917Z,1.42
2022-12-31T06:32:58.994Z,2.95
2022-12-31T06:35:25.982Z,1.75
2022-12-31T06:37:53.190Z,3.90
2022-12-31T06:40:20.208Z,3.83
2022-12-31T06:42:47.238Z,2.45
2022-12-31T06:45:14.267Z,2.20
2022-12-31T06:47:41.375Z,1.95
2022-12-31T06:50:08.998Z,1.23
2022-12-31T06:52:36.354Z,2.78
2022-12-31T06:55:04.530Z,1.70
2022-12-31T06:57:31.839Z,2.38
2022-12-31T06:59:59.426Z,1.10
2022-12-31T07:02:34.078Z,1.75
2022-12-31T07:05:13.101Z,2.72
2022-12-31T07:08:11.602Z,2.88
2022-12-31T07:11:18.459Z,3.67
2022-12-31T07:14:18.745Z,4.75
2022-12-31T07:17:08.308Z,1.05
2022-12-31T07:19:59.664Z,2.38
2022-12-31T07:22:27.180Z,2.75
2022-12-31T07:24:54.700Z,1.17
2022-12-31T07:27:54.162Z,2.08
2022-12-31T07:30:53.899Z,3.38
2022-12-31T07:33:39.746Z,3.47
2022-12-31T07:36:31.752Z,2.58
2022-12-31T07:42:01.119Z,3.25
2022-12-31T07:44:45.330Z,2.60
2022-12-31T07:47:20.907Z,2.40
2022-12-31T07:49:48.643Z,2.65
2022-12-31T07:52:16.240Z,1.67
2022-12-31T07:54:43.630Z,1.80
2022-12-31T07:57:12.949Z,2.40
2022-12-31T07:59:51.826Z,2.03
2022-12-31T08:02:21.694Z,2.22
2022-12-31T08:05:13.538Z,1.23
2022-12-31T08:07:58.287Z,2.35
2022-12-31T08:10:52.373Z,3.15
2022-12-31T08:13:23.503Z,2.03
2022-12-31T08:15:50.898Z,6.30
2022-12-31T08:18:18.117Z,3.50
2022-12-31T08:21:00.551Z,2.10
2022-12-31T08:23:58.401Z,4.80
2022-12-31T08:26:54.851Z,1.83
2022-12-31T08:29:33.701Z,2.50
2022-12-31T08:32:16.772Z,3.67
2022-12-31T08:35:03.078Z,2.13
2022-12-31T08:37:41.640Z,2.33
2022-12-31T08:40:31.515Z,3.17
2022-12-31T08:43:30.215Z,3.58
2022-12-31T08:45:58.458Z,1.65
2022-12-31T08:48:43.789Z,3.67
2022-12-31T08:51:29.342Z,5.93
2022-12-31T08:53:56.709Z,2.55
2022-12-31T08:56:32.526Z,2.63
2022-12-31T08:59:24.353Z,2.88
2022-12-31T09:02:07.565Z,2.15
2022-12-31T09:05:12.359Z,1.83
2022-12-31T09:07:58.075Z,3.35
2022-12-31T09:10:54.030Z,2.97
2022-12-31T09:13:40.244Z,3.40
2022-12-31T09:16:39.640Z,3.88
2022-12-31T09:19:09.370Z,3.67
2022-12-31T09:21:36.606Z,1.88
2022-12-31T09:24:09.356Z,5.63
2022-12-31T09:26:55.564Z,3.72
2022-12-31T09:29:47.832Z,2.22
2022-12-31T09:32:28.431Z,3.95
2022-12-31T09:35:03.988Z,2.20
2022-12-31T09:37:42.292Z,4.28
2022-12-31T09:40:45.972Z,3.25
2022-12-31T09:43:54.557Z,6.20
2022-12-31T09:47:02.617Z,3.67
2022-12-31T09:49:58.063Z,3.05
2022-12-31T09:52:38.828Z,3.58
2022-12-31T09:55:31.142Z,9.10
2022-12-31T09:58:21.115Z,6.13
2022-12-31T10:00:57.897Z,2.97
2022-12-31T10:03:43.572Z,5.55
2022-12-31T10:06:28.539Z,3.50
2022-12-31T10:09:25.543Z,3.33
2022-12-31T10:12:21.005Z,1.30
2022-12-31T10:15:03.434Z,3.17
2022-12-31T10:17:56.429Z,3.88
2022-12-31T10:20:25.795Z,4.40
2022-12-31T10:23:17.799Z,2.08
2022-12-31T10:28:59.625Z,2.33
2022-12-31T10:31:40.636Z,4.07
2022-12-31T10:34:16.911Z,4.27
2022-12-31T10:37:06.693Z,3.85
2022-12-31T10:40:03.849Z,3.67
2022-12-31T10:42:45.971Z,2.45
2022-12-31T10:45:41.140Z,2.55
2022-12-31T10:48:23.366Z,2.75
2022-12-31T10:51:27.891Z,5.63
2022-12-31T10:54:16.070Z,3.58
2022-12-31T10:56:53.970Z,2.30
2022-12-31T10:59:33.296Z,3.78
2022-12-31T11:02:01.452Z,4.10
2022-12-31T11:04:51.695Z,3.25
2022-12-31T11:07:45.599Z,2.72
2022-12-31T11:14:24.691Z,2.28
2022-12-31T11:17:04.947Z,3.17
2022-12-31T11:20:04.030Z,2.78
2022-12-31T11:22:55.485Z,5.85
2022-12-31T11:25:38.798Z,2.65
2022-12-31T11:28:23.999Z,4.65
2022-12-31T11:31:11.801Z,4.32
2022-12-31T11:34:00.482Z,2.67
2022-12-31T11:36:59.860Z,3.55
2022-12-31T11:39:49.626Z,5.88
2022-12-31T11:42:47.540Z,2.95
2022-12-31T11:45:42.269Z,4.05
2022-12-31T11:48:31.836Z,4.65
2022-12-31T11:51:14.592Z,5.95
2022-12-31T11:54:35.403Z,3.60
2022-12-31T11:57:16.735Z,6.28
2022-12-31T11:59:44.938Z,2.45
2022-12-31T12:02:33.293Z,3.83
2022-12-31T12:05:10.277Z,3.55
2022-12-31T12:07:38.463Z,1.70
2022-12-31T12:10:16.986Z,2.90
2022-12-31T12:12:47.847Z,3.33
2022-12-31T12:15:24.806Z,2.80
2022-12-31T12:17:54.609Z,2.50
2022-12-31T12:20:30.707Z,3.20
2022-12-31T12:23:00.963Z,2.33
2022-12-31T12:25:38.237Z,4.50
2022-12-31T12:28:18.631Z,2.78
2022-12-31T12:30:54.417Z,4.57
2022-12-31T12:33:21.515Z,2.38
2022-12-31T12:35:54.039Z,3.17
2022-12-31T12:38:23.482Z,4.50
2022-12-31T12:41:21.077Z,2.33
2022-12-31T12:43:48.161Z,2.45
2022-12-31T12:46:31.129Z,4.78
2022-12-31T12:48:58.642Z,5.68
2022-12-31T12:52:03.297Z,4.65
2022-12-31T12:54:41.712Z,4.57
2022-12-31T12:57:47.890Z,3.72
2022-12-31T13:00:37.290Z,4.72
2022-12-31T13:03:29.790Z,2.53
2022-12-31T13:06:33.583Z,2.40
2022-12-31T13:09:17.174Z,1.90
2022-12-31T13:12:12.021Z,3.42
2022-12-31T13:14:41.691Z,1.50
2022-12-31T13:17:40.940Z,5.30
2022-12-31T13:20:26.395Z,3.55
2022-12-31T13:23:07.043Z,3.03
2022-12-31T13:25:38.489Z,4.47
2022-12-31T13:28:11.953Z,3.63
2022-12-31T13:30:47.167Z,1.45
2022-12-31T13:33:24.323Z,3.97
2022-12-31T13:35:58.260Z,5.28
2022-12-31T13:38:41.899Z,2.08
2022-12-31T13:41:23.975Z,4.72
2022-12-31T13:44:02.898Z,4.15
2022-12-31T13:46:44.873Z,1.65
2022-12-31T13:49:21.393Z,3.92
2022-12-31T13:51:58.743Z,2.28
2022-12-31T13:54:36.311Z,3.47
2022-12-31T13:57:11.327Z,3.17
2022-12-31T13:59:42.465Z,4.55
2022-12-31T14:02:29.168Z,2.47
2022-12-31T14:05:11.725Z,4.57
2022-12-31T14:07:46.992Z,2.97
2022-12-31T14:10:15.344Z,3.80
2022-12-31T14:12:53.921Z,6.75
2022-12-31T14:15:33.347Z,2.38
2022-12-31T14:18:17.508Z,1.95
2022-12-31T14:21:20.992Z,2.75
2022-12-31T14:24:03.049Z,2.65
2022-12-31T14:26:43.041Z,2.53
2022-12-31T14:29:10.018Z,5.07
2022-12-31T14:31:45.929Z,3.13
2022-12-31T14:34:15.615Z,1.85
2022-12-31T14:36:54.797Z,3.30
2022-12-31T14:39:43.244Z,4.93
2022-12-31T14:42:38.900Z,3.55
2022-12-31T14:45:39.021Z,7.88
2022-12-31T14:48:31.829Z,2.55
2022-12-31T14:51:04.056Z,2.50
2022-12-31T14:53:31.319Z,3.63
2022-12-31T14:56:01.997Z,2.92
2022-12-31T14:58:38.552Z,2.88
2022-12-31T15:01:18.975Z,3.70
2022-12-31T15:03:46.540Z,2.00
2022-12-31T15:06:22.362Z,4.00
2022-12-31T15:08:52.403Z,6.60
2022-12-31T15:11:27.729Z,3.95
2022-12-31T15:14:00.945Z,8.27
2022-12-31T15:17:04.196Z,3.33
2022-12-31T15:19:49.964Z,4.00
2022-12-31T15:22:46.697Z,6.18
2022-12-31T15:25:40.024Z,4.93
2022-12-31T15:28:28.554Z,4.15
2022-12-31T15:31:02.241Z,5.13
2022-12-31T15:33:36.331Z,1.77
2022-12-31T15:36:14.820Z,2.20
2022-12-31T15:38:43.136Z,3.25
2022-12-31T15:42:03.001Z,2.33
2022-12-31T15:44:54.889Z,1.80
2022-12-31T15:47:41.363Z,2.17
2022-12-31T15:50:17.111Z,3.70
2022-12-31T15:52:53.821Z,1.75
2022-12-31T15:55:39.882Z,3.08
2022-12-31T15:58:12.007Z,3.97
2022-12-31T16:01:04.623Z,3.28
2022-12-31T16:03:32.122Z,3.33
2022-12-31T16:06:01.802Z,3.60
2022-12-31T16:08:34.795Z,4.47
2022-12-31T16:11:04.713Z,3.17
2022-12-31T16:13:34.780Z,2.47
2022-12-31T16:16:08.403Z,2.55
2022-12-31T16:18:42.965Z,2.13
2022-12-31T16:21:32.963Z,5.57
2022-12-31T16:24:27.076Z,3.92
2022-12-31T16:26:59.027Z,2.55
2022-12-31T16:29:27.308Z,2.08
2022-12-31T16:31:54.556Z,4.93
2022-12-31T16:34:24.601Z,3.40
2022-12-31T16:37:01.828Z,4.80
2022-12-31T16:39:34.630Z,4.90
2022-12-31T16:42:19.218Z,3.30
2022-12-31T16:44:48.024Z,3.33
2022-12-31T16:47:20.184Z,5.43
2022-12-31T16:50:09.174Z,5.05
2022-12-31T16:52:42.836Z,3.42
2022-12-31T16:55:15.541Z,2.65
2022-12-31T16:57:46.199Z,6.65
2022-12-31T17:00:18.562Z,3.55
2022-12-31T17:02:55.761Z,5.85
2022-12-31T17:05:26.038Z,54.80
2022-12-31T17:07:53.378Z,6.30
2022-12-31T17:10:26.574Z,5.55
2022-12-31T17:18:20.506Z,8.18
2022-12-31T17:20:50.165Z,7.53
2022-12-31T17:23:28.778Z,9.45
2022-12-31T17:26:22.263Z,7.78
2022-12-31T17:28:51.706Z,7.95
2022-12-31T17:31:26.097Z,8.70
2022-12-31T17:34:04.195Z,6.28
2022-12-31T17:36:31.330Z,6.20
2022-12-31T17:39:18.962Z,6.93
2022-12-31T17:41:47.731Z,3.45
2022-12-31T17:44:19.840Z,4.35
2022-12-31T17:46:49.128Z,5.22
2022-12-31T17:49:16.284Z,3.85
2022-12-31T17:51:47.541Z,3.88
2022-12-31T17:56:43.005Z,3.80
2022-12-31T17:59:27.131Z,5.55
2022-12-31T18:01:54.543Z,7.60
2022-12-31T18:04:21.888Z,4.43
2022-12-31T18:06:48.930Z,5.63
2022-12-31T18:09:15.930Z,5.20
2022-12-31T18:11:43.160Z,5.40
2022-12-31T18:14:14.705Z,4.30
2022-12-31T18:16:42.219Z,3.97
2022-12-31T18:19:23.470Z,2.65
2022-12-31T18:21:51.032Z,3.42
2022-12-31T18:24:22.788Z,4.80
2022-12-31T18:26:52.881Z,5.38
2022-12-31T18:29:19.870Z,4.63
2022-12-31T18:31:48.692Z,5.32
2022-12-31T18:34:17.648Z,3.38
2022-12-31T18:36:45.421Z,4.57
2022-12-31T18:39:12.488Z,6.80
2022-12-31T18:41:43.898Z,5.78
2022-12-31T18:44:13.345Z,4.78
2022-12-31T18:46:41.622Z,5.45
2022-12-31T18:49:09.439Z,4.15
2022-12-31T18:51:36.532Z,6.88
2022-12-31T18:54:04.507Z,4.65
2022-12-31T18:56:31.662Z,3.05
2022-12-31T18:58:58.784Z,5.22
2022-12-31T19:01:31.508Z,4.35
2022-12-31T19:04:01.212Z,6.40
2022-12-31T19:06:29.556Z,4.15
2022-12-31T19:08:56.936Z,4.30
2022-12-31T19:11:24.136Z,3.60
2022-12-31T19:13:51.213Z,6.50
2022-12-31T19:16:18.346Z,4.75
2022-12-31T19:18:45.776Z,6.72
2022-12-31T19:21:19.599Z,2.45
2022-12-31T19:23:47.124Z,6.63
2022-12-31T19:26:19.987Z,5.40
2022-12-31T19:28:48.371Z,5.72
2022-12-31T19:31:16.466Z,4.88
2022-12-31T19:33:44.403Z,3.15
2022-12-31T19:36:20.049Z,2.85
2022-12-31T19:38:47.186Z,9.32
2022-12-31T19:41:19.288Z,6.28
2022-12-31T19:43:47.778Z,4.75
2022-12-31T19:46:16.191Z,4.72
2022-12-31T19:48:43.782Z,4.80
2022-12-31T19:51:15.501Z,5.95
2022-12-31T19:56:13.715Z,4.70
2022-12-31T19:58:41.207Z,5.63
2022-12-31T20:01:12.792Z,4.30
2022-12-31T20:03:39.902Z,3.88
2022-12-31T20:06:09.882Z,7.70
2022-12-31T20:08:38.737Z,6.47
2022-12-31T20:11:11.430Z,6.28
2022-12-31T20:13:39.784Z,4.88
2022-12-31T20:16:13.078Z,4.63
2022-12-31T20:18:41.460Z,5.32
2022-12-31T20:21:10.907Z,5.43
2022-12-31T20:23:38.123Z,6.70
2022-12-31T20:26:05.304Z,7.40
2022-12-31T20:28:32.324Z,4.38
2022-12-31T20:31:05.206Z,4.55
2022-12-31T20:33:32.291Z,4.07
2022-12-31T20:36:06.303Z,5.28
2022-12-31T20:38:33.776Z,6.32
2022-12-31T20:41:11.786Z,4.25
2022-12-31T20:43:38.830Z,3.90
2022-12-31T20:46:15.378Z,5.55
2022-12-31T20:48:44.070Z,5.15
2022-12-31T20:51:11.963Z,3.67
2022-12-31T20:53:39.062Z,4.70
2022-12-31T20:56:07.381Z,5.28
2022-12-31T20:58:34.752Z,2.30
2022-12-31T21:01:06.268Z,5.95
2022-12-31T21:04:04.511Z,6.93
2022-12-31T21:06:23.699Z,3.72
2022-12-31T21:08:51.035Z,4.18
2022-12-31T21:11:18.069Z,3.78
2022-12-31T21:13:45.115Z,4.45
2022-12-31T21:16:12.191Z,2.72
2022-12-31T21:18:39.261Z,6.95
2022-12-31T21:21:06.542Z,3.60
2022-12-31T21:23:33.544Z,5.65
2022-12-31T21:26:00.609Z,5.93
2022-12-31T21:28:27.585Z,7.13
2022-12-31T21:31:02.670Z,6.07
2022-12-31T21:33:30.100Z,9.82
2022-12-31T21:36:02.605Z,9.50
2022-12-31T21:38:31.503Z,5.63
2022-12-31T21:41:07.291Z,9.00
2022-12-31T21:43:34.765Z,5.32
2022-12-31T21:46:04.831Z,5.03
2022-12-31T21:48:32.851Z,6.18
2022-12-31T21:51:09.877Z,3.75
2022-12-31T21:53:37.639Z,4.72
2022-12-31T21:56:05.494Z,4.43
2022-12-31T21:58:32.557Z,6.97
2022-12-31T22:01:00.249Z,7.65
2022-12-31T22:03:28.477Z,8.13
2022-12-31T22:06:18.115Z,7.82
2022-12-31T22:08:46.315Z,7.22
2022-12-31T22:11:14.090Z,7.72
2022-12-31T22:13:41.509Z,6.38
2022-12-31T22:16:08.963Z,7.53
2022-12-31T22:18:37.998Z,4.55
2022-12-31T22:21:18.368Z,4.15
2022-12-31T22:23:57.157Z,5.22
2022-12-31T22:26:26.915Z,6.80
2022-12-31T22:28:54.786Z,8.05
2022-12-31T22:31:23.371Z,6.47
2022-12-31T22:33:50.561Z,5.43
2022-12-31T22:36:23.399Z,6.43
2022-12-31T22:38:54.275Z,5.20
2022-12-31T22:41:22.472Z,5.13
2022-12-31T22:43:54.955Z,12.57
2022-12-31T22:46:27.812Z,12.35
2022-12-31T22:48:58.617Z,3.67
2022-12-31T22:51:54.906Z,6.85
2022-12-31T22:54:14.717Z,12.10
2022-12-31T22:56:41.931Z,10.70
2022-12-31T22:59:09.184Z,10.70
2022-12-31T23:01:36.986Z,15.45
2022-12-31T23:04:04.794Z,43.33
2022-12-31T23:06:32.396Z,28.77
2022-12-31T23:08:59.392Z,31.33
2022-12-31T23:11:26.517Z,91.78
2022-12-31T23:13:53.528Z,89.50
2022-12-31T23:16:21.377Z,50.28
2022-12-31T23:18:48.385Z,68.63
2022-12-31T23:21:15.864Z,48.15
2022-12-31T23:23:42.848Z,50.47
2022-12-31T23:26:09.957Z,61.40
2022-12-31T23:28:36.982Z,18.75
2022-12-31T23:31:06.243Z,20.23
2022-12-31T23:33:33.405Z,31.65
2022-12-31T23:36:07.266Z,20.35
2022-12-31T23:38:34.359Z,14.80
2022-12-31T23:41:10.699Z,37.97
2022-12-31T23:43:37.743Z,24.80
2022-12-31T23:46:04.787Z,25.13
2022-12-31T23:48:31.830Z,30.73
2022-12-31T23:50:58.859Z,23.65
2022-12-31T23:53:25.947Z,24.02
2022-12-31T23:55:53.236Z,22.60
2022-12-31T23:58:20.500Z,28.95
